Time;durP1;ratioP1;P1;durP2;ratioP2;P2;SDS_P1;SDS_P2;PMS_P1;PMS_P2;Temp;Humidity;BMP_temperature;BMP_pressure;BME280_temperature;BME280_humidity;BME280_pressure;Samples;Min_cycle;Max_cycle;Signal;HPM_P1;HPM_P2
2022/12/09 00:02:09;;;;;;;7.47;3.90;;;;;;;-1.38;100.00;100067.06;4924085;29;20683;-81
2022/12/09 00:04:37;;;;;;;7.47;3.77;;;;;;;-1.42;100.00;100068.72;4931888;29;20039;-79
2022/12/09 00:07:04;;;;;;;7.97;4.17;;;;;;;-1.46;100.00;100064.31;4942817;29;20052;-81
2022/12/09 00:09:30;;;;;;;6.20;3.83;;;;;;;-1.51;100.00;100062.50;4923292;29;20059;-80
2022/12/09 00:12:02;;;;;;;6.20;4.07;;;;;;;-1.54;100.00;100067.63;4928982;29;20047;-81
2022/12/09 00:14:29;;;;;;;8.30;4.23;;;;;;;-1.57;100.00;100065.84;4934291;29;20050;-81
2022/12/09 00:16:56;;;;;;;7.63;3.87;;;;;;;-1.63;100.00;100070.03;4913952;29;20061;-82
2022/12/09 00:19:23;;;;;;;6.03;3.50;;;;;;;-1.70;100.00;100064.72;4933187;29;20486;-79
2022/12/09 00:21:53;;;;;;;6.37;3.73;;;;;;;-1.73;100.00;100075.03;4906990;29;20478;-81
2022/12/09 00:24:20;;;;;;;6.90;3.70;;;;;;;-1.79;100.00;100074.91;4945812;28;20055;-80
2022/12/09 00:26:46;;;;;;;7.27;3.93;;;;;;;-1.79;100.00;100067.16;4938599;29;20047;-82
2022/12/09 00:29:13;;;;;;;7.07;3.90;;;;;;;-1.85;100.00;100077.41;4949115;29;20047;-80
2022/12/09 00:31:40;;;;;;;6.70;3.93;;;;;;;-1.88;100.00;100076.44;4933755;29;20063;-81
2022/12/09 00:34:10;;;;;;;6.03;3.30;;;;;;;-1.88;100.00;100076.44;4914886;29;20092;-82
2022/12/09 00:36:37;;;;;;;7.03;4.10;;;;;;;-1.98;100.00;100076.28;4925082;29;20068;-81
2022/12/09 00:39:04;;;;;;;6.23;3.80;;;;;;;-2.02;100.00;100074.47;4917835;29;20052;-80
2022/12/09 00:41:31;;;;;;;6.77;3.87;;;;;;;-1.97;100.00;100077.13;4934557;29;20074;-81
2022/12/09 00:43:58;;;;;;;6.03;3.43;;;;;;;-2.06;100.00;100072.66;4914830;29;20039;-80
2022/12/09 00:46:25;;;;;;;6.80;3.33;;;;;;;-2.11;100.00;100078.56;4923989;29;20176;-81
2022/12/09 00:48:52;;;;;;;6.03;3.20;;;;;;;-2.15;100.00;100080.22;4916983;29;20075;-81
2022/12/09 00:51:20;;;;;;;5.57;2.87;;;;;;;-2.17;100.00;100084.50;4902641;29;20048;-81
2022/12/09 00:53:52;;;;;;;5.90;3.27;;;;;;;-2.18;100.00;100075.00;4947257;28;20421;-81
2022/12/09 00:56:22;;;;;;;6.43;3.40;;;;;;;-2.13;100.00;100072.50;4947444;28;20117;-81
2022/12/09 00:58:49;;;;;;;5.57;3.20;;;;;;;-2.22;100.00;100082.66;4942376;29;20044;-80
2022/12/09 01:01:16;;;;;;;4.67;2.77;;;;;;;-2.31;100.00;100088.50;4918817;29;20047;-80
2022/12/09 01:03:43;;;;;;;6.13;3.67;;;;;;;-2.32;100.00;100087.63;4947630;29;20036;-81
2022/12/09 01:06:13;;;;;;;5.60;3.23;;;;;;;-2.34;100.00;100093.63;4919951;29;20047;-79
2022/12/09 01:08:40;;;;;;;7.67;3.80;;;;;;;-2.38;100.00;100096.94;4905731;29;20514;-80
2022/12/09 01:11:16;;;;;;;5.60;3.00;;;;;;;-2.42;100.00;100096.03;4942103;23;20060;-80
2022/12/09 01:13:43;;;;;;;6.63;3.27;;;;;;;-2.39;100.00;100095.22;4907754;28;20043;-80
2022/12/09 01:16:15;;;;;;;5.27;2.70;;;;;;;-2.40;100.00;100099.50;4925656;29;20043;-84
2022/12/09 01:18:43;;;;;;;6.33;3.47;;;;;;;-2.46;100.00;100099.38;4914608;29;20042;-83
2022/12/09 01:21:10;;;;;;;5.10;3.20;;;;;;;-2.52;100.00;100103.50;4926987;29;20036;-82
2022/12/09 01:23:37;;;;;;;6.17;3.63;;;;;;;-2.58;100.00;100096.50;4928628;29;20064;-82
2022/12/09 01:26:05;;;;;;;6.10;3.70;;;;;;;-2.59;100.00;100095.63;4926778;29;20075;-82
2022/12/09 01:28:36;;;;;;;5.70;3.33;;;;;;;-2.53;100.00;100097.47;4928473;29;20044;-82
2022/12/09 01:31:17;;;;;;;4.37;3.00;;;;;;;-2.60;100.00;100106.81;4942891;28;20131;-82
2022/12/09 01:33:44;;;;;;;5.33;2.90;;;;;;;-2.69;100.00;100101.44;4928265;29;20036;-82
2022/12/09 01:36:15;;;;;;;6.63;3.37;;;;;;;-2.73;100.00;100101.31;4911055;29;20039;-82
2022/12/09 01:38:42;;;;;;;6.37;3.30;;;;;;;-2.77;100.00;100102.09;4927848;29;20092;-82
2022/12/09 01:41:09;;;;;;;6.17;3.33;;;;;;;-2.80;100.00;100102.88;4927481;29;20115;-82
2022/12/09 01:43:37;;;;;;;5.80;3.10;;;;;;;-2.79;100.00;100103.75;4912251;29;20762;-82
2022/12/09 01:46:05;;;;;;;7.00;3.70;;;;;;;-2.77;100.00;100100.38;4926300;29;20138;-83
2022/12/09 01:48:35;;;;;;;5.37;2.80;;;;;;;-2.86;100.00;100100.13;4932487;29;20095;-82
2022/12/09 01:51:08;;;;;;;5.47;2.90;;;;;;;-2.85;100.00;100104.50;4924636;29;20059;-82
2022/12/09 01:53:38;;;;;;;5.68;2.85;;;;;;;-2.71;100.00;100107.38;4932434;29;20039;-83
2022/12/09 01:56:09;;;;;;;6.27;3.23;;;;;;;-2.57;100.00;100095.66;4925522;29;20103;-82
2022/12/09 01:58:36;;;;;;;6.57;3.03;;;;;;;-2.58;100.00;100087.03;4904863;29;20074;-82
2022/12/09 02:01:03;;;;;;;6.10;3.30;;;;;;;-2.73;100.00;100089.25;4931137;29;20051;-82
2022/12/09 02:03:30;;;;;;;6.17;3.20;;;;;;;-2.82;100.00;100086.47;4932813;29;20036;-81
2022/12/09 02:05:57;;;;;;;5.70;3.00;;;;;;;-2.89;100.00;100093.19;4935832;29;20043;-82
2022/12/09 02:08:24;;;;;;;5.90;3.30;;;;;;;-2.91;100.00;100100.03;4946148;29;20076;-84
2022/12/09 02:11:13;;;;;;;5.43;3.10;;;;;;;-2.98;100.00;100092.97;4926929;29;20102;-82
2022/12/09 02:13:54;;;;;;;5.57;2.67;;;;;;;-3.06;100.00;100099.66;4915132;29;20497;-82
2022/12/09 02:16:24;;;;;;;5.80;2.47;;;;;;;-3.09;100.00;100103.88;4929821;29;20044;-82
2022/12/09 02:19:03;;;;;;;4.10;2.50;;;;;;;-3.12;100.00;100104.66;4911809;29;20066;-82
2022/12/09 02:21:33;;;;;;;6.43;2.93;;;;;;;-3.13;100.00;100108.94;4948055;28;20039;-82
2022/12/09 02:24:07;;;;;;;6.03;3.37;;;;;;;-3.07;100.00;100105.66;4929303;29;20138;-82
2022/12/09 02:27:19;;;;;;;4.23;2.40;;;;;;;-3.04;100.00;100108.31;4932224;29;20114;-82
2022/12/09 02:30:01;;;;;;;4.20;2.47;;;;;;;-3.04;100.00;100110.88;4897981;29;20107;-82
2022/12/09 02:33:06;;;;;;;5.03;2.77;;;;;;;-3.01;100.00;100113.56;4929184;29;20058;-82
2022/12/09 02:35:52;;;;;;;5.35;2.90;;;;;;;-2.92;100.00;100107.75;4944938;29;20070;-82
2022/12/09 02:38:24;;;;;;;5.10;3.33;;;;;;;-2.85;100.00;100104.50;4915695;29;20044;-82
2022/12/09 02:40:59;;;;;;;7.43;4.00;;;;;;;-2.79;100.00;100104.63;4929884;29;20055;-82
2022/12/09 02:43:27;;;;;;;;;;;;;;;-2.77;100.00;100092.63;4931598;29;20036;-82
2022/12/09 02:45:54;;;;;;;8.37;4.50;;;;;;;-2.74;100.00;100097.00;4915075;29;20384;-83
2022/12/09 02:48:24;;;;;;;7.60;4.10;;;;;;;-2.73;100.00;100098.72;4918316;29;20048;-82
2022/12/09 02:50:52;;;;;;;10.00;4.67;;;;;;;-2.69;100.00;100105.72;4915270;29;20489;-81
2022/12/09 02:53:20;;;;;;;8.33;4.67;;;;;;;-2.74;100.00;100103.03;4931970;29;20054;-82
2022/12/09 02:55:48;;;;;;;7.87;4.40;;;;;;;-2.74;100.00;100115.09;4932487;29;20044;-83
2022/12/09 02:58:14;;;;;;;10.00;4.60;;;;;;;-2.72;100.00;100114.28;4915053;29;20054;-83
2022/12/09 03:00:41;;;;;;;10.37;5.17;;;;;;;-2.67;100.00;100110.09;4916913;29;20043;-83
2022/12/09 03:03:14;;;;;;;9.57;4.80;;;;;;;-2.62;100.00;100105.88;4932496;29;20130;-82
2022/12/09 03:05:55;;;;;;;12.05;5.47;;;;;;;-2.53;100.00;100107.81;4907346;29;20043;-82
2022/12/09 03:08:34;;;;;;;10.97;6.40;;;;;;;-2.51;100.00;100111.34;4928930;29;20035;-83
2022/12/09 03:11:05;;;;;;;13.90;6.43;;;;;;;-2.44;100.00;100105.44;4936878;29;20043;-82
2022/12/09 03:13:38;;;;;;;12.40;5.10;;;;;;;-2.49;100.00;100108.78;4924434;29;20040;-83
2022/12/09 03:16:29;;;;;;;10.30;5.17;;;;;;;-2.44;100.00;100104.56;4930538;29;20044;-82
2022/12/09 03:19:05;;;;;;;10.80;5.47;;;;;;;-2.48;100.00;100103.63;4937217;29;20051;-82
2022/12/09 03:21:35;;;;;;;11.87;6.10;;;;;;;-2.49;100.00;100107.06;4934789;29;20478;-83
2022/12/09 03:24:06;;;;;;;12.73;5.90;;;;;;;-2.47;100.00;100096.75;4934376;29;20077;-82
2022/12/09 03:26:34;;;;;;;9.93;4.73;;;;;;;-2.30;100.00;100100.59;4930112;29;20055;-83
2022/12/09 03:29:04;;;;;;;12.60;5.50;;;;;;;-2.39;100.00;100103.84;4936199;29;20086;-83
2022/12/09 03:31:33;;;;;;;10.50;5.83;;;;;;;-2.37;100.00;100109.03;4937307;29;20051;-83
2022/12/09 03:34:02;;;;;;;13.00;6.70;;;;;;;-2.38;100.00;100113.34;4936498;29;20043;-82
2022/12/09 03:36:36;;;;;;;12.93;5.67;;;;;;;-2.45;100.00;100110.59;4938738;29;20107;-83
2022/12/09 03:39:06;;;;;;;11.38;6.10;;;;;;;-2.50;100.00;100100.16;4940342;29;20075;-83
2022/12/09 03:41:33;;;;;;;11.50;5.63;;;;;;;-2.64;100.00;100096.34;4922418;29;20040;-81
2022/12/09 03:44:11;;;;;;;11.27;4.83;;;;;;;-2.63;100.00;100095.50;4946886;29;20141;-81
2022/12/09 03:46:39;;;;;;;9.27;5.40;;;;;;;-2.62;100.00;100103.31;4914382;29;20076;-81
2022/12/09 03:49:05;;;;;;;12.47;6.27;;;;;;;-2.67;100.00;100099.75;4942007;28;20345;-82
2022/12/09 03:51:48;;;;;;;13.37;6.37;;;;;;;-2.76;100.00;100099.53;4931452;29;20036;-80
2022/12/09 03:54:32;;;;;;;12.70;5.93;;;;;;;-2.63;100.00;100090.34;4936401;29;20039;-81
2022/12/09 03:56:59;;;;;;;11.00;5.83;;;;;;;-2.70;100.00;100091.03;4936553;29;20044;-81
2022/12/09 03:59:30;;;;;;;12.20;6.07;;;;;;;-2.42;100.00;100098.59;4956431;29;20568;-81
2022/12/09 04:01:56;;;;;;;11.07;5.57;;;;;;;-2.66;100.00;100095.47;4938494;29;20055;-82
2022/12/09 04:04:23;;;;;;;11.30;5.90;;;;;;;-2.43;100.00;100093.41;4953297;29;20398;-81
2022/12/09 04:06:51;;;;;;;11.63;5.23;;;;;;;-2.59;100.00;100085.28;4920661;29;20040;-82
2022/12/09 04:09:18;;;;;;;12.37;6.03;;;;;;;-2.37;100.00;100089.22;4948425;29;20044;-81
2022/12/09 04:11:45;;;;;;;10.10;5.30;;;;;;;-2.56;100.00;100090.53;4938878;28;20122;-81
2022/12/09 04:14:12;;;;;;;8.83;4.80;;;;;;;-2.59;100.00;100093.06;4948937;29;20044;-81
2022/12/09 04:16:42;;;;;;;11.57;5.40;;;;;;;-2.60;100.00;100090.44;4919536;29;20074;-81
2022/12/09 04:19:09;;;;;;;10.77;5.30;;;;;;;-2.58;100.00;100084.44;4920292;29;20048;-82
2022/12/09 04:21:36;;;;;;;8.73;4.70;;;;;;;-2.66;100.00;100087.69;4915728;29;20064;-82
2022/12/09 04:24:03;;;;;;;11.43;5.30;;;;;;;-2.54;100.00;100095.72;4928409;29;20095;-83
2022/12/09 04:26:30;;;;;;;11.93;6.10;;;;;;;-2.57;100.00;100091.38;4948550;29;20437;-81
2022/12/09 04:28:57;;;;;;;12.33;6.23;;;;;;;-2.58;100.00;100088.75;4943654;29;20063;-84
2022/12/09 04:31:24;;;;;;;12.60;5.97;;;;;;;-2.43;100.00;100083.94;4934768;29;20058;-82
2022/12/09 04:33:51;;;;;;;10.63;5.93;;;;;;;-2.40;100.00;100096.94;4937852;29;20031;-81
2022/12/09 04:36:19;;;;;;;10.63;5.43;;;;;;;-2.47;100.00;100089.00;4929586;29;20048;-82
2022/12/09 04:38:47;;;;;;;10.03;5.10;;;;;;;-2.45;100.00;100093.34;4934515;29;20043;-81
2022/12/09 04:41:15;;;;;;;9.20;4.73;;;;;;;-2.47;100.00;100095.03;4934378;29;20047;-81
2022/12/09 04:43:41;;;;;;;12.10;5.97;;;;;;;-2.40;100.00;100089.16;4935262;29;20044;-83
2022/12/09 04:46:14;;;;;;;9.60;5.23;;;;;;;-2.37;100.00;100094.41;4933975;29;20058;-82
2022/12/09 04:48:42;;;;;;;10.23;5.57;;;;;;;-2.32;100.00;100092.78;4919568;29;20050;-81
2022/12/09 04:51:10;;;;;;;9.83;4.93;;;;;;;-2.32;100.00;100089.34;4933514;29;20060;-82
2022/12/09 04:53:37;;;;;;;10.67;5.87;;;;;;;-2.35;100.00;100090.16;4934085;29;20043;-81
2022/12/09 04:56:07;;;;;;;11.50;5.27;;;;;;;-2.40;100.00;100096.06;4917377;29;20052;-82
2022/12/09 04:58:34;;;;;;;9.20;4.83;;;;;;;-2.40;100.00;100093.47;4933519;29;20050;-82
2022/12/09 05:01:09;;;;;;;12.43;5.37;;;;;;;-2.10;100.00;100090.66;4915799;29;20043;-81
2022/12/09 05:03:36;;;;;;;8.30;4.50;;;;;;;-2.32;100.00;100091.91;4935123;29;20637;-82
2022/12/09 05:06:05;;;;;;;11.23;5.03;;;;;;;-2.13;100.00;100091.47;4938707;29;20567;-80
2022/12/09 05:08:32;;;;;;;10.37;5.03;;;;;;;-2.13;100.00;100095.78;4939948;29;20416;-81
2022/12/09 05:10:59;;;;;;;11.77;4.83;;;;;;;-1.95;100.00;100093.56;4937603;29;20090;-81
2022/12/09 05:13:26;;;;;;;11.33;5.50;;;;;;;-2.16;100.00;100098.31;4953278;28;20032;-81
2022/12/09 05:16:05;;;;;;;10.67;5.13;;;;;;;-2.19;100.00;100098.22;4933060;28;20413;-82
2022/12/09 05:18:41;;;;;;;10.43;5.30;;;;;;;-2.24;100.00;100099.84;4937605;29;20126;-81
2022/12/09 05:21:11;;;;;;;11.23;5.37;;;;;;;-2.11;100.00;100094.97;4932715;29;20087;-83
2022/12/09 05:23:38;;;;;;;8.57;5.43;;;;;;;-2.08;100.00;100095.03;4920608;29;20332;-81
2022/12/09 05:26:07;;;;;;;10.43;5.37;;;;;;;-2.20;100.00;100097.34;4935310;29;20071;-82
2022/12/09 05:28:34;;;;;;;8.43;4.77;;;;;;;-2.18;100.00;100105.19;4916260;29;20501;-81
2022/12/09 05:31:03;;;;;;;11.53;5.10;;;;;;;-2.13;100.00;100098.38;4934845;29;20036;-81
2022/12/09 05:33:30;;;;;;;9.60;5.30;;;;;;;-2.12;100.00;100094.94;4935552;29;20051;-82
2022/12/09 05:35:57;;;;;;;11.40;5.83;;;;;;;-2.00;100.00;100093.50;4950511;29;20091;-82
2022/12/09 05:38:24;;;;;;;11.33;5.57;;;;;;;-1.94;100.00;100097.91;4916952;29;20051;-81
2022/12/09 05:40:52;;;;;;;11.57;6.10;;;;;;;-1.99;100.00;100095.22;4946702;28;20039;-81
2022/12/09 05:43:19;;;;;;;12.53;6.30;;;;;;;-1.97;100.00;100097.84;4920883;29;20586;-81
2022/12/09 05:45:46;;;;;;;10.93;5.60;;;;;;;-2.02;100.00;100096.88;4928542;29;20040;-81
2022/12/09 05:48:13;;;;;;;10.07;5.17;;;;;;;-2.06;100.00;100101.13;4915720;29;20667;-81
2022/12/09 05:50:40;;;;;;;10.97;5.90;;;;;;;-1.96;100.00;100097.00;4945986;29;20492;-81
2022/12/09 05:53:07;;;;;;;12.70;5.70;;;;;;;-1.83;100.00;100095.56;4917713;29;20080;-81
2022/12/09 05:55:34;;;;;;;11.93;6.37;;;;;;;-1.98;100.00;100093.53;4934604;29;20036;-81
2022/12/09 05:58:01;;;;;;;11.20;6.03;;;;;;;-2.05;100.00;100091.63;4932153;29;20039;-81
2022/12/09 06:00:28;;;;;;;10.30;5.33;;;;;;;-2.02;100.00;100099.44;4933457;29;20047;-82
2022/12/09 06:02:55;;;;;;;14.03;6.53;;;;;;;-1.92;100.00;100101.41;4925756;29;20105;-82
2022/12/09 06:05:22;;;;;;;13.13;6.53;;;;;;;-1.95;100.00;100103.94;4934482;29;20047;-82
2022/12/09 06:07:49;;;;;;;13.03;7.57;;;;;;;-1.78;100.00;100102.56;4934143;29;20549;-81
2022/12/09 06:10:16;;;;;;;12.03;6.80;;;;;;;-1.87;100.00;100097.19;4941594;29;20040;-81
2022/12/09 06:12:44;;;;;;;14.70;6.53;;;;;;;-1.88;100.00;100090.28;4938618;28;20051;-83
2022/12/09 06:15:10;;;;;;;15.27;7.00;;;;;;;-1.90;100.00;100101.44;4948610;29;20497;-81
2022/12/09 06:17:44;;;;;;;12.13;6.90;;;;;;;-1.86;100.00;100100.66;4913178;29;20663;-81
2022/12/09 06:20:11;;;;;;;16.10;7.27;;;;;;;-1.85;100.00;100102.41;4950837;29;20294;-81
2022/12/09 06:22:39;;;;;;;14.17;6.43;;;;;;;-1.91;100.00;100099.69;4948842;28;20044;-81
2022/12/09 06:25:05;;;;;;;14.23;7.37;;;;;;;-1.91;100.00;100099.69;4932554;29;20458;-81
2022/12/09 06:27:33;;;;;;;15.00;7.63;;;;;;;-1.87;100.00;100104.09;4914162;29;20043;-82
2022/12/09 06:29:59;;;;;;;14.53;7.27;;;;;;;-1.87;100.00;100104.09;4910677;29;20047;-82
2022/12/09 06:32:26;;;;;;;16.00;8.10;;;;;;;-1.84;100.00;100106.75;4914927;29;20138;-82
2022/12/09 06:34:53;;;;;;;16.40;8.03;;;;;;;-1.78;100.00;100110.31;4930319;29;20094;-82
2022/12/09 06:37:20;;;;;;;14.43;7.67;;;;;;;-1.81;100.00;100110.28;4931066;29;20039;-81
2022/12/09 06:39:47;;;;;;;14.83;7.53;;;;;;;-1.77;100.00;100104.28;4931013;29;20493;-82
2022/12/09 06:42:14;;;;;;;12.80;7.10;;;;;;;-1.76;100.00;100106.06;4939236;28;20401;-82
2022/12/09 06:44:41;;;;;;;13.03;6.70;;;;;;;-1.75;100.00;100106.94;4917696;29;20032;-83
2022/12/09 06:47:08;;;;;;;14.00;7.00;;;;;;;-1.71;100.00;100106.16;4931615;29;20058;-83
2022/12/09 06:49:35;;;;;;;15.13;8.03;;;;;;;-1.64;100.00;100112.31;4936023;29;20040;-82
2022/12/09 06:52:02;;;;;;;19.80;8.03;;;;;;;-1.70;100.00;100110.47;4955320;28;20046;-81
2022/12/09 06:54:29;;;;;;;15.53;7.23;;;;;;;-1.67;100.00;100114.88;4952312;29;20049;-82
2022/12/09 06:56:56;;;;;;;13.43;7.27;;;;;;;-1.66;100.00;100109.72;4932002;29;20079;-81
2022/12/09 06:59:23;;;;;;;15.53;6.77;;;;;;;-1.73;100.00;100123.38;4927287;29;20127;-81
2022/12/09 07:01:51;;;;;;;15.67;8.07;;;;;;;-1.73;100.00;100119.06;4927633;29;20072;-81
2022/12/09 07:04:18;;;;;;;14.93;8.00;;;;;;;-1.75;100.00;100118.16;4913264;29;20482;-81
2022/12/09 07:06:45;;;;;;;13.30;7.53;;;;;;;-1.72;100.00;100118.22;4946412;28;20039;-81
2022/12/09 07:09:15;;;;;;;13.63;6.97;;;;;;;-1.72;100.00;100123.41;4928562;29;20410;-81
2022/12/09 07:11:44;;;;;;;15.00;7.13;;;;;;;-1.74;100.00;100125.09;4889841;29;20047;-82
2022/12/09 07:14:13;;;;;;;15.93;8.47;;;;;;;-1.66;100.00;100126.97;4914334;29;20054;-81
2022/12/09 07:16:40;;;;;;;16.20;9.00;;;;;;;-1.71;100.00;100127.72;4916012;29;20040;-82
2022/12/09 07:19:15;;;;;;;16.70;8.43;;;;;;;-1.66;100.00;100132.16;4949170;28;20110;-81
2022/12/09 07:21:41;;;;;;;19.35;8.13;;;;;;;-1.70;100.00;100133.78;4944015;28;21574;-82
2022/12/09 07:24:10;;;;;;;18.20;8.83;;;;;;;-1.68;100.00;100136.41;5039796;23;20025;-80
2022/12/09 07:26:37;;;;;;;19.63;9.10;;;;;;;-1.64;100.00;100146.00;4953468;28;20061;-80
2022/12/09 07:29:05;;;;;;;21.43;9.53;;;;;;;-1.63;100.00;100143.44;4956366;28;20507;-80
2022/12/09 07:31:32;;;;;;;19.27;9.43;;;;;;;-1.59;100.00;100136.63;4952966;28;20069;-81
2022/12/09 07:34:00;;;;;;;21.93;9.87;;;;;;;-1.59;100.00;100134.91;4969767;28;20046;-80
2022/12/09 07:36:29;;;;;;;24.97;11.40;;;;;;;-1.54;100.00;100140.16;4947877;28;20046;-79
2022/12/09 07:39:04;;;;;;;22.10;10.13;;;;;;;-1.52;100.00;100131.56;4979807;28;20046;-79
2022/12/09 07:41:31;;;;;;;19.37;9.03;;;;;;;-1.49;100.00;100139.41;4974999;28;20043;-78
2022/12/09 07:43:58;;;;;;;22.47;10.30;;;;;;;-1.46;100.00;100143.75;4978713;28;20122;-78
2022/12/09 07:46:28;;;;;;;21.63;11.20;;;;;;;-1.44;100.00;100149.84;4964998;28;20034;-79
2022/12/09 07:48:56;;;;;;;25.03;11.30;;;;;;;-1.42;100.00;100148.19;4978660;28;20043;-79
2022/12/09 07:51:24;;;;;;;25.63;11.00;;;;;;;-1.40;100.00;100151.66;4959129;28;20045;-81
2022/12/09 07:53:51;;;;;;;25.67;12.63;;;;;;;-1.30;100.00;100147.53;4958041;28;20046;-81
2022/12/09 07:56:19;;;;;;;26.50;10.90;;;;;;;-1.24;100.00;100152.84;4954562;28;20034;-81
2022/12/09 07:58:47;;;;;;;28.97;12.63;;;;;;;-1.29;100.00;100147.56;4956329;28;20118;-81
2022/12/09 08:01:16;;;;;;;27.67;13.17;;;;;;;-1.31;100.00;100150.97;4973087;28;20095;-81
2022/12/09 08:03:45;;;;;;;27.03;11.53;;;;;;;-1.29;100.00;100154.44;4964175;28;20452;-81
2022/12/09 08:06:14;;;;;;;25.30;11.57;;;;;;;-1.26;100.00;100151.91;4982442;28;20039;-81
2022/12/09 08:08:42;;;;;;;27.90;11.60;;;;;;;-1.28;100.00;100153.59;4975792;28;20500;-81
2022/12/09 08:11:20;;;;;;;34.77;14.57;;;;;;;-1.26;100.00;100147.63;4948746;29;20070;-81
2022/12/09 08:13:47;;;;;;;29.20;13.30;;;;;;;-1.19;100.00;100158.97;4948421;28;20050;-81
2022/12/09 08:16:17;;;;;;;27.63;11.70;;;;;;;-1.20;100.00;100149.44;4980656;28;20385;-80
2022/12/09 08:18:45;;;;;;;26.00;11.83;;;;;;;-1.14;100.00;100147.84;4967314;28;20074;-81
2022/12/09 08:21:15;;;;;;;33.00;13.33;;;;;;;-1.08;100.00;100147.09;4952811;28;20051;-81
2022/12/09 08:23:43;;;;;;;28.83;12.87;;;;;;;-1.08;100.00;100143.63;4964835;28;20043;-80
2022/12/09 08:26:11;;;;;;;23.93;11.73;;;;;;;-1.06;100.00;100150.56;4950894;28;20073;-81
2022/12/09 08:28:39;;;;;;;24.57;12.03;;;;;;;-1.01;100.00;100145.47;4978550;28;20054;-81
2022/12/09 08:31:08;;;;;;;26.90;12.43;;;;;;;-0.78;100.00;100141.53;4981683;28;20053;-80
2022/12/09 08:33:36;;;;;;;25.03;11.47;;;;;;;-0.75;100.00;100144.22;4985353;28;20062;-80
2022/12/09 08:36:06;;;;;;;22.40;11.00;;;;;;;-0.74;100.00;100139.91;4967682;28;20078;-80
2022/12/09 08:38:35;;;;;;;24.90;10.33;;;;;;;-0.75;100.00;100141.63;4969475;28;20039;-80
2022/12/09 08:41:08;;;;;;;22.70;10.07;;;;;;;-0.79;100.00;100142.41;4986221;28;20508;-81
2022/12/09 08:43:35;;;;;;;24.53;11.10;;;;;;;-0.81;100.00;100136.31;4988188;28;20042;-81
2022/12/09 08:46:02;;;;;;;24.93;12.13;;;;;;;-0.76;100.00;100146.75;4959561;28;20046;-80
2022/12/09 08:48:29;;;;;;;22.83;11.80;;;;;;;-0.76;100.00;100145.03;4967620;28;20047;-81
2022/12/09 08:50:56;;;;;;;26.13;11.90;;;;;;;-0.81;100.00;100144.09;4951881;29;20071;-80
2022/12/09 08:53:23;;;;;;;26.87;12.73;;;;;;;-0.76;100.00;100137.25;4959255;28;20074;-81
2022/12/09 08:55:50;;;;;;;26.03;12.17;;;;;;;-0.73;100.00;100139.91;4952028;28;20062;-80
2022/12/09 08:58:17;;;;;;;29.97;12.50;;;;;;;-0.69;100.00;100128.72;4984474;28;20035;-81
2022/12/09 09:00:44;;;;;;;22.73;10.80;;;;;;;-0.68;100.00;100133.06;4967891;28;20534;-81
2022/12/09 09:03:11;;;;;;;23.93;10.80;;;;;;;-0.61;100.00;100139.22;4983804;28;20047;-81
2022/12/09 09:05:38;;;;;;;25.37;11.13;;;;;;;-0.57;100.00;100144.50;4962804;28;20065;-80
2022/12/09 09:08:06;;;;;;;26.97;12.33;;;;;;;-0.53;100.00;100142.81;4961353;28;20062;-79
2022/12/09 09:10:33;;;;;;;20.10;10.67;;;;;;;-0.50;100.00;100148.09;4952733;28;20043;-80
2022/12/09 09:12:59;;;;;;;23.60;10.93;;;;;;;-0.54;100.00;100146.28;4949875;28;20074;-81
2022/12/09 09:15:27;;;;;;;24.37;11.30;;;;;;;-0.52;100.00;100146.28;4963693;29;20038;-80
2022/12/09 09:17:53;;;;;;;24.47;11.43;;;;;;;-0.48;100.00;100146.38;4947589;29;20059;-80
2022/12/09 09:20:20;;;;;;;23.43;10.83;;;;;;;-0.45;100.00;100151.59;4963229;28;20526;-80
2022/12/09 09:22:47;;;;;;;23.57;11.60;;;;;;;-0.45;100.00;100158.50;4963098;28;20043;-80
2022/12/09 09:25:14;;;;;;;25.47;10.60;;;;;;;-0.47;100.00;100155.03;4950728;28;20070;-80
2022/12/09 09:27:41;;;;;;;25.33;11.10;;;;;;;-0.51;100.00;100156.69;4981804;28;20054;-80
2022/12/09 09:30:09;;;;;;;21.73;9.97;;;;;;;-0.50;100.00;100162.78;4966273;28;20054;-80
2022/12/09 09:32:36;;;;;;;25.37;12.20;;;;;;;-0.53;100.00;100155.78;4965639;28;20412;-80
2022/12/09 09:35:03;;;;;;;22.67;11.43;;;;;;;-0.51;100.00;100163.59;4982007;28;20057;-79
2022/12/09 09:37:30;;;;;;;22.80;10.13;;;;;;;-0.54;100.00;100153.19;4937654;28;20082;-80
2022/12/09 09:39:57;;;;;;;22.17;10.80;;;;;;;-0.58;100.00;100162.66;4951698;28;20069;-79
2022/12/09 09:42:33;;;;;;;21.10;11.20;;;;;;;-0.50;100.00;100155.00;4979528;28;20495;-80
2022/12/09 09:45:03;;;;;;;18.10;9.00;;;;;;;-0.40;100.00;100151.69;4949320;28;20057;-80
2022/12/09 09:47:42;;;;;;;23.43;10.97;;;;;;;-0.38;100.00;100150.84;4980672;28;20046;-80
2022/12/09 09:50:37;;;;;;;19.40;10.03;;;;;;;-0.40;100.00;100155.16;4965720;28;20050;-80
2022/12/09 09:53:25;;;;;;;25.50;12.68;;;;;;;-0.35;100.00;100145.69;4981835;28;20049;-79
2022/12/09 09:55:58;;;;;;;23.47;10.37;;;;;;;-0.44;100.00;100142.09;4966268;28;20225;-80
2022/12/09 09:58:35;;;;;;;29.27;12.37;;;;;;;-0.36;100.00;100148.28;4975489;28;20038;-80
2022/12/09 10:01:06;;;;;;;27.63;14.57;;;;;;;-0.32;100.00;100145.75;4961641;28;20329;-79
2022/12/09 10:03:54;;;;;;;27.40;14.47;;;;;;;-0.06;100.00;100148.75;4979957;28;20046;-80
2022/12/09 10:06:46;;;;;;;24.63;10.97;;;;;;;0.04;100.00;100154.06;4979476;28;20038;-80
2022/12/09 10:09:20;;;;;;;27.33;12.50;;;;;;;-0.02;100.00;100153.09;4974621;28;20047;-78
2022/12/09 10:12:00;;;;;;;25.50;11.37;;;;;;;-0.12;100.00;100152.97;4963681;28;20062;-81
2022/12/09 10:14:39;;;;;;;30.13;13.20;;;;;;;-0.06;100.00;100140.94;4946929;28;20097;-80
2022/12/09 10:17:27;;;;;;;20.03;10.17;;;;;;;0.00;100.00;100147.97;4964544;28;20047;-79
2022/12/09 10:20:01;;;;;;;29.13;11.80;;;;;;;-0.02;100.00;100147.91;4959039;28;20098;-80
2022/12/09 10:22:52;;;;;;;25.37;11.80;;;;;;;0.03;100.00;100140.19;4977976;28;20117;-81
2022/12/09 10:25:24;;;;;;;24.20;11.60;;;;;;;0.11;100.00;100137.72;4968132;28;20057;-80
2022/12/09 10:27:54;;;;;;;28.07;12.50;;;;;;;0.03;100.00;100136.72;4958302;28;20114;-80
2022/12/09 10:30:21;;;;;;;27.43;13.07;;;;;;;-0.07;100.00;100139.22;4976360;28;20046;-79
2022/12/09 10:32:48;;;;;;;24.80;12.03;;;;;;;-0.20;100.00;100133.81;4974952;28;20047;-79
2022/12/09 10:35:18;;;;;;;26.93;11.17;;;;;;;-0.24;100.00;100132.03;4975204;28;20042;-81
2022/12/09 10:37:47;;;;;;;23.60;11.70;;;;;;;-0.33;100.00;100133.63;4959071;28;20035;-83
2022/12/09 10:40:37;;;;;;;23.23;9.83;;;;;;;-0.29;100.00;100134.53;4941194;29;20062;-82
2022/12/09 10:43:42;;;;;;;27.50;13.17;;;;;;;-0.21;100.00;100143.31;4924911;28;20054;-82
2022/12/09 10:46:14;;;;;;;27.63;12.70;;;;;;;-0.17;100.00;100132.16;4900597;29;20067;-82
2022/12/09 10:48:46;;;;;;;29.97;14.07;;;;;;;-0.12;100.00;100138.25;4955860;28;20078;-82
2022/12/09 10:51:23;;;;;;;29.53;13.70;;;;;;;-0.04;100.00;100139.25;4954822;28;20044;-82
2022/12/09 10:54:16;;;;;;;24.67;13.20;;;;;;;0.05;100.00;100140.22;4934239;28;20779;-82
2022/12/09 10:57:04;;;;;;;24.43;11.80;;;;;;;0.31;100.00;100138.81;4955712;28;20043;-82
2022/12/09 10:59:31;;;;;;;22.63;11.60;;;;;;;0.40;100.00;100133.75;4936336;28;20047;-83
2022/12/09 11:02:10;;;;;;;20.33;10.80;;;;;;;0.13;100.00;100134.28;4923011;28;20046;-83
2022/12/09 11:04:41;;;;;;;24.57;11.63;;;;;;;0.02;100.00;100137.59;4940705;28;20062;-82
2022/12/09 11:07:11;;;;;;;22.20;12.23;;;;;;;-0.02;100.00;100137.53;4953932;28;20416;-81
2022/12/09 11:09:44;;;;;;;25.10;12.40;;;;;;;-0.04;100.00;100135.78;4973670;28;20066;-83
2022/12/09 11:12:26;;;;;;;25.90;13.43;;;;;;;-0.03;100.00;100128.00;4940669;28;20074;-82
2022/12/09 11:15:00;;;;;;;25.57;12.47;;;;;;;-0.03;100.00;100133.19;4971899;28;20098;-82
2022/12/09 11:17:31;;;;;;;25.63;12.43;;;;;;;-0.07;100.00;100131.41;4916143;29;20905;-81
2022/12/09 11:20:05;;;;;;;23.60;11.60;;;;;;;-0.04;100.00;100135.78;4956745;28;20050;-82
2022/12/09 11:22:40;;;;;;;25.15;12.70;;;;;;;0.14;100.00;100129.94;4971420;28;20050;-82
2022/12/09 11:25:10;;;;;;;25.27;12.83;;;;;;;0.01;100.00;100128.94;4956118;28;20050;-82